sensor_id;sensor_type;location;lat;lon;timestamp;pressure;altitude;pressure_sealevel;temperature;humidity
63339;BME280;47485;51.378;-1.342;2022-07-23T00:00:03;100517.28;;;17.75;34.15
63339;BME280;47485;51.378;-1.342;2022-07-23T00:02:30;100518.49;;;18.47;32.64
63339;BME280;47485;51.378;-1.342;2022-07-23T00:04:57;100519.32;;;19.92;32.49
63339;BME280;47485;51.378;-1.342;2022-07-23T00:07:24;100518.42;;;19.06;32.81
63339;BME280;47485;51.378;-1.342;2022-07-23T00:09:50;100520.62;;;19.52;33.02
63339;BME280;47485;51.378;-1.342;2022-07-23T00:12:17;100519.05;;;18.36;34.24
63339;BME280;47485;51.378;-1.342;2022-07-23T00:14:44;100518.27;;;19.39;34.95
63339;BME280;47485;51.378;-1.342;2022-07-23T00:17:11;100516.98;;;17.16;35.50
63339;BME280;47485;51.378;-1.342;2022-07-23T00:19:37;100519.83;;;17.57;35.36
63339;BME280;47485;51.378;-1.342;2022-07-23T00:22:04;100516.38;;;17.53;35.42
63339;BME280;47485;51.378;-1.342;2022-07-23T00:24:31;100516.75;;;17.99;34.90
63339;BME280;47485;51.378;-1.342;2022-07-23T00:26:57;100515.83;;;18.49;35.08
63339;BME280;47485;51.378;-1.342;2022-07-23T00:29:25;100518.28;;;18.19;35.30
63339;BME280;47485;51.378;-1.342;2022-07-23T00:31:52;100524.34;;;16.83;36.15
63339;BME280;47485;51.378;-1.342;2022-07-23T00:34:18;100526.09;;;16.18;37.72
63339;BME280;47485;51.378;-1.342;2022-07-23T00:36:46;100530.81;;;15.39;39.54
63339;BME280;47485;51.378;-1.342;2022-07-23T00:39:12;100526.46;;;15.09;38.70
63339;BME280;47485;51.378;-1.342;2022-07-23T00:41:39;100524.52;;;15.21;39.41
63339;BME280;47485;51.378;-1.342;2022-07-23T00:44:15;100527.57;;;16.21;38.73
63339;BME280;47485;51.378;-1.342;2022-07-23T00:46:46;100524.60;;;16.00;38.31
63339;BME280;47485;51.378;-1.342;2022-07-23T00:49:14;100526.83;;;15.59;37.88
63339;BME280;47485;51.378;-1.342;2022-07-23T00:51:41;100525.11;;;16.52;37.57
63339;BME280;47485;51.378;-1.342;2022-07-23T00:54:08;100524.55;;;14.79;37.98
63339;BME280;47485;51.378;-1.342;2022-07-23T00:56:36;100519.63;;;15.98;36.93
63339;BME280;47485;51.378;-1.342;2022-07-23T00:59:03;100521.29;;;15.23;37.35
63339;BME280;47485;51.378;-1.342;2022-07-23T01:01:30;100521.02;;;15.51;36.82
63339;BME280;47485;51.378;-1.342;2022-07-23T01:03:57;100518.80;;;16.11;34.24
63339;BME280;47485;51.378;-1.342;2022-07-23T01:06:23;100514.29;;;16.84;33.44
63339;BME280;47485;51.378;-1.342;2022-07-23T01:08:50;100508.04;;;16.40;32.83
63339;BME280;47485;51.378;-1.342;2022-07-23T01:11:18;100510.87;;;17.15;32.57
63339;BME280;47485;51.378;-1.342;2022-07-23T01:13:47;100513.42;;;16.97;32.99
63339;BME280;47485;51.378;-1.342;2022-07-23T01:16:14;100509.67;;;17.45;33.20
63339;BME280;47485;51.378;-1.342;2022-07-23T01:18:41;100505.30;;;16.14;32.98
63339;BME280;47485;51.378;-1.342;2022-07-23T01:21:08;100503.06;;;17.29;32.12
63339;BME280;47485;51.378;-1.342;2022-07-23T01:23:36;100503.82;;;16.20;32.05
63339;BME280;47485;51.378;-1.342;2022-07-23T01:26:03;100503.20;;;17.20;31.89
63339;BME280;47485;51.378;-1.342;2022-07-23T01:28:30;100502.42;;;17.24;31.55
63339;BME280;47485;51.378;-1.342;2022-07-23T01:30:57;100499.57;;;17.26;30.47
63339;BME280;47485;51.378;-1.342;2022-07-23T01:33:24;100502.40;;;18.71;30.21
63339;BME280;47485;51.378;-1.342;2022-07-23T01:35:50;100498.83;;;18.94;30.08
63339;BME280;47485;51.378;-1.342;2022-07-23T01:38:18;100498.08;;;18.75;30.63
63339;BME280;47485;51.378;-1.342;2022-07-23T01:40:45;100496.97;;;17.68;29.63
63339;BME280;47485;51.378;-1.342;2022-07-23T01:43:12;100499.43;;;19.83;28.41
63339;BME280;47485;51.378;-1.342;2022-07-23T01:45:38;100499.01;;;17.90;29.26
63339;BME280;47485;51.378;-1.342;2022-07-23T01:48:06;100496.85;;;15.92;30.67
63339;BME280;47485;51.378;-1.342;2022-07-23T01:50:33;100496.43;;;15.75;30.46
63339;BME280;47485;51.378;-1.342;2022-07-23T01:53:00;100494.41;;;15.39;31.00
63339;BME280;47485;51.378;-1.342;2022-07-23T01:55:27;100495.25;;;15.95;29.95
63339;BME280;47485;51.378;-1.342;2022-07-23T01:57:54;100494.67;;;16.00;29.75
63339;BME280;47485;51.378;-1.342;2022-07-23T02:00:20;100493.49;;;15.15;29.82
63339;BME280;47485;51.378;-1.342;2022-07-23T02:02:47;100492.53;;;17.37;28.96
63339;BME280;47485;51.378;-1.342;2022-07-23T02:05:14;100494.10;;;17.44;28.70
63339;BME280;47485;51.378;-1.342;2022-07-23T02:07:41;100488.84;;;15.88;28.01
63339;BME280;47485;51.378;-1.342;2022-07-23T02:10:08;100488.19;;;16.13;28.28
63339;BME280;47485;51.378;-1.342;2022-07-23T02:12:35;100493.39;;;13.62;29.29
63339;BME280;47485;51.378;-1.342;2022-07-23T02:15:02;100494.35;;;17.04;28.59
63339;BME280;47485;51.378;-1.342;2022-07-23T02:17:29;100492.39;;;16.78;28.37
63339;BME280;47485;51.378;-1.342;2022-07-23T02:19:56;100491.13;;;16.08;28.45
63339;BME280;47485;51.378;-1.342;2022-07-23T02:22:23;100493.97;;;16.46;27.89
63339;BME280;47485;51.378;-1.342;2022-07-23T02:24:49;100494.90;;;16.13;27.85
63339;BME280;47485;51.378;-1.342;2022-07-23T02:27:16;100498.45;;;16.35;28.11
63339;BME280;47485;51.378;-1.342;2022-07-23T02:29:43;100497.88;;;17.71;27.27
63339;BME280;47485;51.378;-1.342;2022-07-23T02:32:09;100497.53;;;17.93;27.32
63339;BME280;47485;51.378;-1.342;2022-07-23T02:34:36;100492.54;;;18.44;25.88
63339;BME280;47485;51.378;-1.342;2022-07-23T02:37:03;100490.45;;;19.07;26.00
63339;BME280;47485;51.378;-1.342;2022-07-23T02:39:30;100491.66;;;17.15;27.42
63339;BME280;47485;51.378;-1.342;2022-07-23T02:41:57;100490.70;;;15.06;27.73
63339;BME280;47485;51.378;-1.342;2022-07-23T02:44:24;100492.25;;;17.32;27.07
63339;BME280;47485;51.378;-1.342;2022-07-23T02:46:50;100495.68;;;16.20;28.90
63339;BME280;47485;51.378;-1.342;2022-07-23T02:49:17;100498.77;;;15.30;28.61
63339;BME280;47485;51.378;-1.342;2022-07-23T02:51:44;100499.30;;;17.07;27.56
63339;BME280;47485;51.378;-1.342;2022-07-23T02:54:12;100499.06;;;18.00;26.72
63339;BME280;47485;51.378;-1.342;2022-07-23T02:56:38;100500.86;;;16.83;27.70
63339;BME280;47485;51.378;-1.342;2022-07-23T02:59:05;100500.34;;;17.21;27.20
63339;BME280;47485;51.378;-1.342;2022-07-23T03:01:32;100498.93;;;17.27;27.94
63339;BME280;47485;51.378;-1.342;2022-07-23T03:03:58;100500.51;;;16.76;28.01
63339;BME280;47485;51.378;-1.342;2022-07-23T03:06:25;100499.40;;;15.98;28.47
63339;BME280;47485;51.378;-1.342;2022-07-23T03:08:52;100497.67;;;15.25;28.25
63339;BME280;47485;51.378;-1.342;2022-07-23T03:11:19;100496.98;;;19.14;26.06
63339;BME280;47485;51.378;-1.342;2022-07-23T03:13:46;100497.51;;;19.11;25.35
63339;BME280;47485;51.378;-1.342;2022-07-23T03:16:13;100495.40;;;18.82;26.19
63339;BME280;47485;51.378;-1.342;2022-07-23T03:18:40;100499.59;;;18.12;26.79
63339;BME280;47485;51.378;-1.342;2022-07-23T03:21:07;100501.76;;;19.58;26.21
63339;BME280;47485;51.378;-1.342;2022-07-23T03:23:34;100501.97;;;18.27;27.76
63339;BME280;47485;51.378;-1.342;2022-07-23T03:26:02;100507.70;;;16.61;29.64
63339;BME280;47485;51.378;-1.342;2022-07-23T03:28:28;100505.66;;;17.11;31.43
63339;BME280;47485;51.378;-1.342;2022-07-23T03:30:55;100504.73;;;16.27;32.47
63339;BME280;47485;51.378;-1.342;2022-07-23T03:33:22;100509.56;;;16.45;33.30
63339;BME280;47485;51.378;-1.342;2022-07-23T03:35:49;100509.39;;;15.28;34.22
63339;BME280;47485;51.378;-1.342;2022-07-23T03:38:16;100509.41;;;14.48;34.20
63339;BME280;47485;51.378;-1.342;2022-07-23T03:40:43;100512.28;;;14.61;34.09
63339;BME280;47485;51.378;-1.342;2022-07-23T03:43:10;100512.89;;;15.17;33.64
63339;BME280;47485;51.378;-1.342;2022-07-23T03:45:36;100511.28;;;16.43;32.88
63339;BME280;47485;51.378;-1.342;2022-07-23T03:48:03;100512.22;;;16.60;32.28
63339;BME280;47485;51.378;-1.342;2022-07-23T03:50:30;100513.35;;;16.28;31.60
63339;BME280;47485;51.378;-1.342;2022-07-23T03:52:57;100508.06;;;16.88;31.20
63339;BME280;47485;51.378;-1.342;2022-07-23T03:55:24;100505.53;;;14.86;31.93
63339;BME280;47485;51.378;-1.342;2022-07-23T03:57:50;100505.39;;;16.12;30.62
63339;BME280;47485;51.378;-1.342;2022-07-23T04:00:17;100500.23;;;17.58;29.60
63339;BME280;47485;51.378;-1.342;2022-07-23T04:02:45;100500.74;;;17.80;29.51
63339;BME280;47485;51.378;-1.342;2022-07-23T04:05:11;100504.83;;;17.78;30.06
63339;BME280;47485;51.378;-1.342;2022-07-23T04:07:38;100514.50;;;16.97;31.72
63339;BME280;47485;51.378;-1.342;2022-07-23T04:10:06;100517.63;;;15.15;32.81
63339;BME280;47485;51.378;-1.342;2022-07-23T04:12:32;100519.61;;;14.89;33.34
63339;BME280;47485;51.378;-1.342;2022-07-23T04:14:59;100516.97;;;14.64;33.18
63339;BME280;47485;51.378;-1.342;2022-07-23T04:17:26;100511.92;;;14.02;32.87
63339;BME280;47485;51.378;-1.342;2022-07-23T04:19:53;100506.11;;;16.30;31.01
63339;BME280;47485;51.378;-1.342;2022-07-23T04:22:20;100510.06;;;16.23;30.80
63339;BME280;47485;51.378;-1.342;2022-07-23T04:24:47;100511.88;;;16.21;30.87
63339;BME280;47485;51.378;-1.342;2022-07-23T04:27:14;100508.31;;;15.62;30.48
63339;BME280;47485;51.378;-1.342;2022-07-23T04:29:40;100515.30;;;15.50;30.11
63339;BME280;47485;51.378;-1.342;2022-07-23T04:32:08;100524.16;;;16.36;30.67
63339;BME280;47485;51.378;-1.342;2022-07-23T04:34:36;100524.81;;;15.53;30.50
63339;BME280;47485;51.378;-1.342;2022-07-23T04:37:03;100520.50;;;15.42;30.50
63339;BME280;47485;51.378;-1.342;2022-07-23T04:39:30;100514.83;;;15.10;30.35
63339;BME280;47485;51.378;-1.342;2022-07-23T04:41:57;100511.34;;;15.84;29.46
63339;BME280;47485;51.378;-1.342;2022-07-23T04:44:24;100511.66;;;17.45;29.00
63339;BME280;47485;51.378;-1.342;2022-07-23T04:46:50;100512.04;;;17.37;29.25
63339;BME280;47485;51.378;-1.342;2022-07-23T04:49:17;100515.56;;;17.35;29.24
63339;BME280;47485;51.378;-1.342;2022-07-23T04:51:44;100518.03;;;17.18;28.72
63339;BME280;47485;51.378;-1.342;2022-07-23T04:54:11;100514.91;;;17.36;28.63
63339;BME280;47485;51.378;-1.342;2022-07-23T04:56:38;100512.95;;;16.05;28.82
63339;BME280;47485;51.378;-1.342;2022-07-23T04:59:05;100508.62;;;16.35;28.94
63339;BME280;47485;51.378;-1.342;2022-07-23T05:01:32;100503.09;;;14.43;30.24
63339;BME280;47485;51.378;-1.342;2022-07-23T05:03:58;100502.96;;;15.72;29.82
63339;BME280;47485;51.378;-1.342;2022-07-23T05:06:25;100503.62;;;16.24;28.85
63339;BME280;47485;51.378;-1.342;2022-07-23T05:08:52;100507.64;;;14.85;28.76
63339;BME280;47485;51.378;-1.342;2022-07-23T05:11:19;100510.26;;;14.88;29.44
63339;BME280;47485;51.378;-1.342;2022-07-23T05:13:46;100517.43;;;15.11;28.50
63339;BME280;47485;51.378;-1.342;2022-07-23T05:16:13;100512.80;;;17.63;26.11
63339;BME280;47485;51.378;-1.342;2022-07-23T05:18:39;100510.58;;;17.94;25.98
63339;BME280;47485;51.378;-1.342;2022-07-23T05:21:06;100509.69;;;18.48;26.49
63339;BME280;47485;51.378;-1.342;2022-07-23T05:23:33;100509.53;;;18.40;26.57
63339;BME280;47485;51.378;-1.342;2022-07-23T05:26:00;100506.62;;;15.25;29.47
63339;BME280;47485;51.378;-1.342;2022-07-23T05:28:27;100510.06;;;14.44;30.47
63339;BME280;47485;51.378;-1.342;2022-07-23T05:30:53;100512.58;;;15.43;28.97
63339;BME280;47485;51.378;-1.342;2022-07-23T05:33:20;100514.35;;;14.90;29.22
63339;BME280;47485;51.378;-1.342;2022-07-23T05:35:47;100514.42;;;16.93;27.40
63339;BME280;47485;51.378;-1.342;2022-07-23T05:38:14;100515.07;;;18.65;26.04
63339;BME280;47485;51.378;-1.342;2022-07-23T05:40:41;100515.76;;;18.47;26.58
63339;BME280;47485;51.378;-1.342;2022-07-23T05:43:08;100514.30;;;14.95;28.68
63339;BME280;47485;51.378;-1.342;2022-07-23T05:45:35;100519.92;;;17.92;26.53
63339;BME280;47485;51.378;-1.342;2022-07-23T05:48:02;100524.47;;;18.66;26.10
63339;BME280;47485;51.378;-1.342;2022-07-23T05:50:28;100529.26;;;17.44;26.96
63339;BME280;47485;51.378;-1.342;2022-07-23T05:52:55;100530.03;;;17.92;27.01
63339;BME280;47485;51.378;-1.342;2022-07-23T05:55:22;100531.41;;;17.92;27.86
63339;BME280;47485;51.378;-1.342;2022-07-23T05:57:49;100528.67;;;18.39;28.33
63339;BME280;47485;51.378;-1.342;2022-07-23T06:00:16;100534.40;;;17.65;29.98
63339;BME280;47485;51.378;-1.342;2022-07-23T06:02:43;100537.93;;;17.00;30.80
63339;BME280;47485;51.378;-1.342;2022-07-23T06:05:09;100543.54;;;14.03;32.06
63339;BME280;47485;51.378;-1.342;2022-07-23T06:07:36;100540.35;;;15.59;32.98
63339;BME280;47485;51.378;-1.342;2022-07-23T06:10:03;100539.31;;;15.40;33.34
63339;BME280;47485;51.378;-1.342;2022-07-23T06:12:31;100538.74;;;15.60;33.22
63339;BME280;47485;51.378;-1.342;2022-07-23T06:14:58;100540.52;;;15.33;33.35
63339;BME280;47485;51.378;-1.342;2022-07-23T06:17:25;100539.80;;;15.28;32.94
63339;BME280;47485;51.378;-1.342;2022-07-23T06:19:51;100538.98;;;14.00;34.46
63339;BME280;47485;51.378;-1.342;2022-07-23T06:22:18;100535.73;;;14.37;33.35
63339;BME280;47485;51.378;-1.342;2022-07-23T06:24:46;100530.62;;;15.67;31.99
63339;BME280;47485;51.378;-1.342;2022-07-23T06:27:13;100531.14;;;16.46;32.31
63339;BME280;47485;51.378;-1.342;2022-07-23T06:29:40;100530.77;;;15.38;33.71
63339;BME280;47485;51.378;-1.342;2022-07-23T06:32:06;100532.02;;;13.88;35.49
63339;BME280;47485;51.378;-1.342;2022-07-23T06:34:33;100532.10;;;13.38;38.08
63339;BME280;47485;51.378;-1.342;2022-07-23T06:37:00;100529.65;;;12.52;38.42
63339;BME280;47485;51.378;-1.342;2022-07-23T06:39:27;100526.12;;;12.38;38.12
63339;BME280;47485;51.378;-1.342;2022-07-23T06:41:54;100528.01;;;12.74;39.41
63339;BME280;47485;51.378;-1.342;2022-07-23T06:44:20;100537.55;;;12.37;40.31
63339;BME280;47485;51.378;-1.342;2022-07-23T06:46:47;100545.31;;;10.66;41.63
63339;BME280;47485;51.378;-1.342;2022-07-23T06:49:14;100545.14;;;11.23;41.81
63339;BME280;47485;51.378;-1.342;2022-07-23T06:51:40;100550.20;;;10.88;41.23
63339;BME280;47485;51.378;-1.342;2022-07-23T06:54:07;100549.47;;;11.69;40.28
63339;BME280;47485;51.378;-1.342;2022-07-23T06:56:34;100550.47;;;11.26;41.38
63339;BME280;47485;51.378;-1.342;2022-07-23T06:59:01;100548.25;;;10.97;41.35
63339;BME280;47485;51.378;-1.342;2022-07-23T07:01:27;100540.75;;;11.80;39.59
63339;BME280;47485;51.378;-1.342;2022-07-23T07:03:54;100539.63;;;11.56;39.51
63339;BME280;47485;51.378;-1.342;2022-07-23T07:06:21;100542.53;;;12.22;40.34
63339;BME280;47485;51.378;-1.342;2022-07-23T07:08:47;100543.48;;;12.59;39.93
63339;BME280;47485;51.378;-1.342;2022-07-23T07:11:14;100540.74;;;14.02;39.42
63339;BME280;47485;51.378;-1.342;2022-07-23T07:13:42;100540.27;;;13.45;36.76
63339;BME280;47485;51.378;-1.342;2022-07-23T07:16:08;100541.74;;;14.06;35.35
63339;BME280;47485;51.378;-1.342;2022-07-23T07:18:35;100543.12;;;14.79;34.25
63339;BME280;47485;51.378;-1.342;2022-07-23T07:21:02;100543.36;;;14.65;34.47
63339;BME280;47485;51.378;-1.342;2022-07-23T07:23:29;100545.74;;;15.49;35.16
63339;BME280;47485;51.378;-1.342;2022-07-23T07:25:55;100541.82;;;13.65;35.47
63339;BME280;47485;51.378;-1.342;2022-07-23T07:28:22;100545.53;;;14.09;35.65
63339;BME280;47485;51.378;-1.342;2022-07-23T07:30:48;100551.09;;;14.46;35.60
63339;BME280;47485;51.378;-1.342;2022-07-23T07:33:15;100551.58;;;13.85;36.21
63339;BME280;47485;51.378;-1.342;2022-07-23T07:35:42;100547.28;;;13.71;36.12
63339;BME280;47485;51.378;-1.342;2022-07-23T07:38:09;100552.60;;;14.20;34.90
63339;BME280;47485;51.378;-1.342;2022-07-23T07:40:36;100550.93;;;15.42;33.95
63339;BME280;47485;51.378;-1.342;2022-07-23T07:43:02;100549.61;;;16.09;32.42
63339;BME280;47485;51.378;-1.342;2022-07-23T07:45:29;100552.21;;;16.86;31.55
63339;BME280;47485;51.378;-1.342;2022-07-23T07:47:56;100554.60;;;16.59;32.18
63339;BME280;47485;51.378;-1.342;2022-07-23T07:50:23;100556.99;;;15.43;33.18
63339;BME280;47485;51.378;-1.342;2022-07-23T07:52:50;100555.69;;;13.09;34.77
63339;BME280;47485;51.378;-1.342;2022-07-23T07:55:17;100559.31;;;16.50;33.05
63339;BME280;47485;51.378;-1.342;2022-07-23T07:57:44;100560.73;;;14.93;33.68
63339;BME280;47485;51.378;-1.342;2022-07-23T08:00:12;100556.69;;;15.00;35.28
63339;BME280;47485;51.378;-1.342;2022-07-23T08:02:41;100554.31;;;14.14;34.12
63339;BME280;47485;51.378;-1.342;2022-07-23T08:05:08;100552.62;;;15.40;31.90
63339;BME280;47485;51.378;-1.342;2022-07-23T08:07:35;100557.22;;;15.43;30.24
63339;BME280;47485;51.378;-1.342;2022-07-23T08:10:02;100561.17;;;15.79;30.54
63339;BME280;47485;51.378;-1.342;2022-07-23T08:12:37;100562.41;;;14.83;31.69
63339;BME280;47485;51.378;-1.342;2022-07-23T08:15:05;100560.69;;;15.60;30.38
63339;BME280;47485;51.378;-1.342;2022-07-23T08:17:33;100567.78;;;15.52;32.29
63339;BME280;47485;51.378;-1.342;2022-07-23T08:20:00;100557.86;;;15.65;30.33
63339;BME280;47485;51.378;-1.342;2022-07-23T08:22:42;100560.63;;;14.83;33.01
63339;BME280;47485;51.378;-1.342;2022-07-23T08:25:09;100556.34;;;14.47;34.53
63339;BME280;47485;51.378;-1.342;2022-07-23T08:27:36;100555.90;;;15.38;33.37
63339;BME280;47485;51.378;-1.342;2022-07-23T08:30:04;100561.36;;;14.81;33.10
63339;BME280;47485;51.378;-1.342;2022-07-23T08:32:31;100566.71;;;14.23;35.84
63339;BME280;47485;51.378;-1.342;2022-07-23T08:34:57;100566.50;;;14.83;34.44
63339;BME280;47485;51.378;-1.342;2022-07-23T08:37:24;100564.87;;;14.25;33.04
63339;BME280;47485;51.378;-1.342;2022-07-23T08:39:51;100560.61;;;15.33;34.07
63339;BME280;47485;51.378;-1.342;2022-07-23T08:42:18;100558.59;;;14.16;33.12
63339;BME280;47485;51.378;-1.342;2022-07-23T08:44:47;100554.07;;;16.74;31.29
63339;BME280;47485;51.378;-1.342;2022-07-23T08:47:14;100558.26;;;15.45;32.84
63339;BME280;47485;51.378;-1.342;2022-07-23T08:49:42;100551.14;;;16.48;31.69
63339;BME280;47485;51.378;-1.342;2022-07-23T08:52:08;100548.83;;;14.88;31.55
63339;BME280;47485;51.378;-1.342;2022-07-23T08:54:35;100547.40;;;15.33;29.44
63339;BME280;47485;51.378;-1.342;2022-07-23T08:57:03;100549.12;;;15.58;31.61
63339;BME280;47485;51.378;-1.342;2022-07-23T08:59:31;100550.83;;;17.17;31.03
63339;BME280;47485;51.378;-1.342;2022-07-23T09:01:58;100553.64;;;16.33;30.10
63339;BME280;47485;51.378;-1.342;2022-07-23T09:04:25;100560.22;;;16.54;31.45
63339;BME280;47485;51.378;-1.342;2022-07-23T09:06:51;100565.58;;;15.53;31.94
63339;BME280;47485;51.378;-1.342;2022-07-23T09:09:20;100560.10;;;16.13;31.60
63339;BME280;47485;51.378;-1.342;2022-07-23T09:11:48;100561.67;;;15.62;31.84
63339;BME280;47485;51.378;-1.342;2022-07-23T09:14:36;100555.50;;;14.90;30.88
63339;BME280;47485;51.378;-1.342;2022-07-23T09:17:09;100563.67;;;11.42;32.43
63339;BME280;47485;51.378;-1.342;2022-07-23T09:19:36;100560.72;;;12.56;30.82
63339;BME280;47485;51.378;-1.342;2022-07-23T09:22:17;100557.54;;;17.90;27.41
63339;BME280;47485;51.378;-1.342;2022-07-23T09:25:03;100557.98;;;19.36;27.47
63339;BME280;47485;51.378;-1.342;2022-07-23T09:27:47;100559.42;;;18.42;28.48
63339;BME280;47485;51.378;-1.342;2022-07-23T09:30:15;100554.81;;;18.10;28.11
63339;BME280;47485;51.378;-1.342;2022-07-23T09:32:42;100556.44;;;16.99;29.60
63339;BME280;47485;51.378;-1.342;2022-07-23T09:35:09;100556.97;;;15.12;30.56
63339;BME280;47485;51.378;-1.342;2022-07-23T09:37:36;100551.58;;;15.03;29.99
63339;BME280;47485;51.378;-1.342;2022-07-23T09:40:05;100553.36;;;16.87;29.07
63339;BME280;47485;51.378;-1.342;2022-07-23T09:42:33;100550.16;;;16.67;28.61
63339;BME280;47485;51.378;-1.342;2022-07-23T09:45:00;100557.12;;;16.58;29.15
63339;BME280;47485;51.378;-1.342;2022-07-23T09:47:28;100553.43;;;14.05;30.28
63339;BME280;47485;51.378;-1.342;2022-07-23T09:50:01;100549.09;;;14.70;30.82
63339;BME280;47485;51.378;-1.342;2022-07-23T09:52:29;100546.72;;;18.89;27.59
63339;BME280;47485;51.378;-1.342;2022-07-23T09:55:00;100543.91;;;15.60;29.10
63339;BME280;47485;51.378;-1.342;2022-07-23T09:57:27;100548.52;;;17.69;30.32
63339;BME280;47485;51.378;-1.342;2022-07-23T10:00:00;100548.11;;;16.61;30.31
63339;BME280;47485;51.378;-1.342;2022-07-23T10:02:28;100548.93;;;16.67;30.65
63339;BME280;47485;51.378;-1.342;2022-07-23T10:04:59;100551.79;;;15.19;32.15
63339;BME280;47485;51.378;-1.342;2022-07-23T10:07:31;100554.47;;;17.09;31.05
63339;BME280;47485;51.378;-1.342;2022-07-23T10:09:59;100552.05;;;16.74;32.07
63339;BME280;47485;51.378;-1.342;2022-07-23T10:12:26;100547.17;;;16.53;32.66
63339;BME280;47485;51.378;-1.342;2022-07-23T10:14:53;100542.60;;;15.40;30.68
63339;BME280;47485;51.378;-1.342;2022-07-23T10:17:19;100538.39;;;16.50;30.31
63339;BME280;47485;51.378;-1.342;2022-07-23T10:19:47;100535.46;;;17.68;30.36
63339;BME280;47485;51.378;-1.342;2022-07-23T10:22:18;100541.19;;;17.79;31.51
63339;BME280;47485;51.378;-1.342;2022-07-23T10:24:52;100536.19;;;16.56;30.96
63339;BME280;47485;51.378;-1.342;2022-07-23T10:27:36;100535.43;;;16.17;31.59
63339;BME280;47485;51.378;-1.342;2022-07-23T10:30:09;100531.56;;;16.31;31.28
63339;BME280;47485;51.378;-1.342;2022-07-23T10:32:43;100528.95;;;14.73;31.52
63339;BME280;47485;51.378;-1.342;2022-07-23T10:35:22;100527.49;;;18.02;29.58
63339;BME280;47485;51.378;-1.342;2022-07-23T10:37:55;100535.34;;;16.09;29.63
63339;BME280;47485;51.378;-1.342;2022-07-23T10:40:23;100527.39;;;17.30;27.81
63339;BME280;47485;51.378;-1.342;2022-07-23T10:42:52;100522.70;;;18.61;27.59
63339;BME280;47485;51.378;-1.342;2022-07-23T10:45:25;100516.80;;;19.79;27.93
63339;BME280;47485;51.378;-1.342;2022-07-23T10:47:53;100522.27;;;15.74;31.42
63339;BME280;47485;51.378;-1.342;2022-07-23T10:50:23;100518.90;;;17.15;29.12
63339;BME280;47485;51.378;-1.342;2022-07-23T10:53:22;100512.57;;;19.89;27.26
63339;BME280;47485;51.378;-1.342;2022-07-23T10:55:52;100508.30;;;20.28;25.24
63339;BME280;47485;51.378;-1.342;2022-07-23T10:58:21;100510.87;;;20.02;26.16
63339;BME280;47485;51.378;-1.342;2022-07-23T11:00:49;100515.87;;;17.94;28.50
63339;BME280;47485;51.378;-1.342;2022-07-23T11:03:30;100507.00;;;16.88;28.66
63339;BME280;47485;51.378;-1.342;2022-07-23T11:05:57;100507.22;;;18.03;28.87
63339;BME280;47485;51.378;-1.342;2022-07-23T11:08:24;100514.35;;;17.28;29.87
63339;BME280;47485;51.378;-1.342;2022-07-23T11:10:54;100518.77;;;15.41;30.37
63339;BME280;47485;51.378;-1.342;2022-07-23T11:13:33;100509.83;;;19.17;25.94
63339;BME280;47485;51.378;-1.342;2022-07-23T11:16:06;100510.58;;;19.93;27.05
63339;BME280;47485;51.378;-1.342;2022-07-23T11:19:07;100512.15;;;21.38;25.37
63339;BME280;47485;51.378;-1.342;2022-07-23T11:21:50;100511.08;;;19.91;26.49
63339;BME280;47485;51.378;-1.342;2022-07-23T11:24:20;100511.12;;;19.25;26.07
63339;BME280;47485;51.378;-1.342;2022-07-23T11:26:53;100519.06;;;16.79;28.77
63339;BME280;47485;51.378;-1.342;2022-07-23T11:29:53;100517.99;;;18.16;27.16
63339;BME280;47485;51.378;-1.342;2022-07-23T11:32:31;100519.77;;;17.37;29.18
63339;BME280;47485;51.378;-1.342;2022-07-23T11:34:58;100517.79;;;15.51;28.69
63339;BME280;47485;51.378;-1.342;2022-07-23T11:37:31;100520.88;;;17.48;28.52
63339;BME280;47485;51.378;-1.342;2022-07-23T11:39:58;100516.17;;;17.36;29.08
63339;BME280;47485;51.378;-1.342;2022-07-23T11:42:25;100516.57;;;16.29;29.35
63339;BME280;47485;51.378;-1.342;2022-07-23T11:44:52;100519.58;;;13.99;30.01
63339;BME280;47485;51.378;-1.342;2022-07-23T11:47:22;100519.64;;;19.23;27.87
63339;BME280;47485;51.378;-1.342;2022-07-23T11:49:52;100518.98;;;17.42;27.72
63339;BME280;47485;51.378;-1.342;2022-07-23T11:52:19;100523.34;;;17.42;28.14
63339;BME280;47485;51.378;-1.342;2022-07-23T11:54:51;100510.79;;;19.30;26.31
63339;BME280;47485;51.378;-1.342;2022-07-23T11:57:20;100521.47;;;15.34;28.70
63339;BME280;47485;51.378;-1.342;2022-07-23T11:59:51;100517.51;;;16.60;28.25
63339;BME280;47485;51.378;-1.342;2022-07-23T12:02:20;100516.59;;;16.24;28.31
63339;BME280;47485;51.378;-1.342;2022-07-23T12:04:50;100506.31;;;20.99;25.60
63339;BME280;47485;51.378;-1.342;2022-07-23T12:07:26;100506.14;;;20.05;25.88
63339;BME280;47485;51.378;-1.342;2022-07-23T12:09:53;100513.96;;;13.39;31.95
63339;BME280;47485;51.378;-1.342;2022-07-23T12:12:21;100500.80;;;19.02;26.59
63339;BME280;47485;51.378;-1.342;2022-07-23T12:14:49;100511.42;;;17.42;27.72
63339;BME280;47485;51.378;-1.342;2022-07-23T12:17:17;100514.37;;;17.30;27.68
63339;BME280;47485;51.378;-1.342;2022-07-23T12:19:44;100507.37;;;20.76;26.55
63339;BME280;47485;51.378;-1.342;2022-07-23T12:22:11;100518.16;;;16.25;30.16
63339;BME280;47485;51.378;-1.342;2022-07-23T12:24:56;100514.93;;;15.62;29.98
63339;BME280;47485;51.378;-1.342;2022-07-23T12:27:24;100516.16;;;15.49;31.41
63339;BME280;47485;51.378;-1.342;2022-07-23T12:29:51;100507.18;;;16.72;27.78
63339;BME280;47485;51.378;-1.342;2022-07-23T12:32:20;100507.64;;;17.98;30.62
63339;BME280;47485;51.378;-1.342;2022-07-23T12:34:49;100505.34;;;17.37;30.41
63339;BME280;47485;51.378;-1.342;2022-07-23T12:37:33;100507.01;;;17.35;30.93
63339;BME280;47485;51.378;-1.342;2022-07-23T12:40:19;100508.20;;;18.22;29.61
63339;BME280;47485;51.378;-1.342;2022-07-23T12:42:47;100511.75;;;17.56;29.97
63339;BME280;47485;51.378;-1.342;2022-07-23T12:45:15;100514.02;;;16.71;32.40